Sterling Heights, MI

8:34 AM EST on December 17, 2017 (GMT -0500)
16 Mile Rd and Dequindre | | Change Station

Elev 633 ft 42.57 °N, 83.08 °W | Updated 16 minutes ago

Overcast
Overcast
25.4 °F
Feels Like 25 °F
N
1.0
Wind Variable Wind from West
Gusts 3.0 mph

Today
High -- | Low -- °F
--% Chance of Precip.
Yesterday
High -- | Low -- °F
Precip. -- in
Pressure 30.22 in
Visibility 10.0 miles
Clouds Mostly Cloudy 700 ft
Overcast 1500 ft
Windchill 25 °F
Dew Point 21 °F
Humidity 83%
Rainfall 0.00 in
Snow Depth Not available.
7:56 AM 5:00 PM
Waning Crescent, 0% visible
METAR KVLL 171315Z AUTO 05006KT 10SM BKN007 OVC015 M03/M06 A3022 RMK AO2 T10321058
Pressure 30.22 in
Visibility 10.0 miles
Clouds Mostly Cloudy 700 ft
Overcast 1500 ft
Windchill 25 °F
Dew Point 21 °F
Humidity 83%
Rainfall 0.00 in
Snow Depth Not available.
7:56 AM 5:00 PM
Waning Crescent, 0% visible
METAR KVLL 171315Z AUTO 05006KT 10SM BKN007 OVC015 M03/M06 A3022 RMK AO2 T10321058

Get Severe Weather Alerts

Thanks for signing up!

Be on the lookout for a verification email in your inbox.

You'll start receiving the daily forecast at 6 AM.

×

10-Day Weather Forecast

Almanac

Astronomy

Dec. 17, 2017 Rise Set
Actual Time
Civil Twilight
Nautical Twilight
Astronomical Twilight
Moon
Length of Visible Light
Length of Day
Tomorrow will be .
, % of the Moon is Illuminated

Today's Extremes

State Highs State Lows

Community

WunderPhotos

Category 6

Welcome to Category 6. This is the collective home for Weather Underground's featured writeups by Dr. Jeff Masters (right), Bob Henson (left), Chris Burt, and other regular contributors.

Nearby

Air Quality

  Air Quality AQ Index Pollutant
Not available.

Snow Depth

Station Depth Elevation

Earthquake Activity

City Distance Mag. Time & Date
Minimum magnitude displayed is 2.5.

Coastal Water Temperatures

Place Temperature

Stations

Nearby Weather Stations

Station Location Temp. Windchill Dew Point Humidity Wind Precip. Elev Updated Type
                   

Watches & Warnings

There are currently no watches in effect.